createdAt,value
2022-09-23T00:00:35.107Z,13.7
2022-09-23T00:02:41.861Z,12.9
2022-09-23T00:04:45.392Z,11.7
2022-09-23T00:06:49.022Z,10.7
2022-09-23T00:08:52.659Z,12.1
2022-09-23T00:10:56.260Z,11.3
2022-09-23T00:12:59.907Z,12.7
2022-09-23T00:15:03.577Z,13.9
2022-09-23T00:17:10.395Z,14.1
2022-09-23T00:19:13.901Z,16.8
2022-09-23T00:21:17.552Z,11.3
2022-09-23T00:23:21.168Z,12.7
2022-09-23T00:27:28.428Z,15
2022-09-23T00:29:32.031Z,11.8
2022-09-23T00:31:38.757Z,13.7
2022-09-23T00:33:42.393Z,18.6
2022-09-23T00:35:46.006Z,11.6
2022-09-23T00:37:49.662Z,11.9
2022-09-23T00:39:53.283Z,11.3
2022-09-23T00:41:56.948Z,11.4
2022-09-23T00:44:00.560Z,14.4
2022-09-23T00:46:07.293Z,11.8
2022-09-23T00:48:10.882Z,14.8
2022-09-23T00:51:18.062Z,16.8
2022-09-23T00:53:23.068Z,11.5
2022-09-23T00:55:26.637Z,13.1
2022-09-23T00:57:31.539Z,15.1
2022-09-23T00:59:41.227Z,14.6
2022-09-23T01:01:59.802Z,15.6
2022-09-23T01:03:44.288Z,11.2
2022-09-23T01:05:47.893Z,12.6
2022-09-23T01:07:51.544Z,12.8
2022-09-23T01:09:55.157Z,13.4
2022-09-23T01:11:58.827Z,10.6
2022-09-23T01:14:05.507Z,10.9
2022-09-23T01:16:09.129Z,11.3
2022-09-23T01:18:12.774Z,12
2022-09-23T01:20:16.409Z,11.8
2022-09-23T01:22:20.041Z,16.3
2022-09-23T01:24:23.685Z,20.9
2022-09-23T01:26:27.319Z,13
2022-09-23T01:28:33.995Z,10.4
2022-09-23T01:30:37.727Z,9.8
2022-09-23T01:32:41.292Z,14.7
2022-09-23T01:36:48.569Z,11.6
2022-09-23T01:38:52.215Z,10.5
2022-09-23T01:43:02.522Z,10.1
2022-09-23T01:45:06.162Z,15
2022-09-23T01:47:09.783Z,14
2022-09-23T01:48:13.161Z,10.2
2022-09-23T01:50:16.768Z,8.6
2022-09-23T01:52:20.398Z,11.1
2022-09-23T01:54:24.042Z,8.3
2022-09-23T01:56:30.759Z,15.8
2022-09-23T01:58:34.358Z,15.5
2022-09-23T02:00:37.989Z,21.2
2022-09-23T02:02:41.736Z,13
2022-09-23T02:04:45.284Z,16.8
2022-09-23T02:06:48.899Z,17.4
2022-09-23T02:08:52.548Z,18.7
2022-09-23T02:13:02.897Z,15.5
2022-09-23T02:15:06.564Z,14
2022-09-23T02:17:10.209Z,19.2
2022-09-23T02:19:13.855Z,19.7
2022-09-23T02:21:17.416Z,17.5
2022-09-23T02:23:21.109Z,13.5
2022-09-23T02:25:27.824Z,19.1
2022-09-23T02:29:35.083Z,15.2
2022-09-23T02:31:38.782Z,16.4
2022-09-23T02:33:42.378Z,26.5
2022-09-23T02:35:46.013Z,19.3
2022-09-23T02:37:49.660Z,31.4
2022-09-23T02:39:56.409Z,23
2022-09-23T02:42:00.009Z,23
2022-09-23T02:44:03.671Z,25.7
2022-09-23T02:48:37.475Z,23.3
2022-09-23T02:50:41.110Z,24.3
2022-09-23T02:52:47.810Z,22.3
2022-09-23T02:54:51.420Z,19.6
2022-09-23T02:56:55.113Z,21.3
2022-09-23T02:58:58.747Z,19.2
2022-09-23T03:01:02.448Z,12.8
2022-09-23T03:03:05.988Z,12
2022-09-23T03:05:09.840Z,18.2
2022-09-23T03:07:16.391Z,18.8
2022-09-23T03:09:20.022Z,15.2
2022-09-23T03:11:23.644Z,14.8
2022-09-23T03:13:29.406Z,13.9
2022-09-23T03:17:34.584Z,14.6
2022-09-23T03:19:38.248Z,14.8
2022-09-23T03:21:44.874Z,11.5
2022-09-23T03:23:48.542Z,13.8
2022-09-23T03:25:52.182Z,11.5
2022-09-23T03:27:55.810Z,14
2022-09-23T03:29:59.451Z,11.4
2022-09-23T03:32:03.146Z,17.1
2022-09-23T03:34:06.733Z,13.3
2022-09-23T03:36:13.418Z,16.3
2022-09-23T03:38:17.072Z,11.9
2022-09-23T03:40:20.736Z,12.2
2022-09-23T03:41:24.049Z,20.5
2022-09-23T03:43:27.691Z,13.4
2022-09-23T03:49:41.656Z,12.7
2022-09-23T03:51:45.293Z,20
2022-09-23T03:53:48.947Z,13
2022-09-23T03:59:59.846Z,15.1
2022-09-23T04:04:10.193Z,13.9
2022-09-23T04:06:13.846Z,15.1
2022-09-23T04:08:17.484Z,15.4
2022-09-23T04:10:21.125Z,9.6
2022-09-23T04:14:28.400Z,13.9
2022-09-23T04:16:32.160Z,17.1
2022-09-23T04:18:38.783Z,13.5
2022-09-23T04:20:42.366Z,9.4
2022-09-23T04:24:49.669Z,11.4
2022-09-23T04:26:53.305Z,15.4
2022-09-23T04:28:56.958Z,10.8
2022-09-23T04:31:00.589Z,10.8
2022-09-23T04:33:07.306Z,14.9
2022-09-23T04:35:11.062Z,11
2022-09-23T04:37:14.589Z,14.1
2022-09-23T04:40:21.626Z,11.9
2022-09-23T04:42:25.191Z,17.3
2022-09-23T04:44:28.830Z,14.1
2022-09-23T04:46:35.589Z,15
2022-09-23T04:48:39.202Z,14.1
2022-09-23T04:50:42.795Z,13.1
2022-09-23T04:52:46.515Z,11.6
2022-09-23T04:54:50.074Z,14.8
2022-09-23T04:56:53.718Z,11.6
2022-09-23T04:58:57.381Z,12.7
2022-09-23T05:01:05.419Z,14.1
2022-09-23T05:03:07.695Z,14
2022-09-23T05:05:11.510Z,14.9
2022-09-23T05:07:14.961Z,14.9
2022-09-23T05:09:18.587Z,17.8
2022-09-23T05:11:22.247Z,17
2022-09-23T05:13:25.879Z,14.1
2022-09-23T05:15:32.565Z,15.3
2022-09-23T05:17:36.251Z,14.8
2022-09-23T05:19:39.822Z,20.9
2022-09-23T05:21:43.426Z,16.5
2022-09-23T05:23:47.108Z,18.6
2022-09-23T05:25:50.748Z,14.6
2022-09-23T05:27:54.338Z,12.2
2022-09-23T05:32:04.746Z,15.9
2022-09-23T05:34:08.331Z,12.7
2022-09-23T05:35:11.804Z,20
2022-09-23T05:37:15.345Z,25.3
2022-09-23T05:39:18.943Z,17.8
2022-09-23T05:43:29.332Z,15.4
2022-09-23T05:45:32.931Z,16.2
2022-09-23T05:47:36.565Z,14.5
2022-09-23T05:49:58.543Z,14.2
2022-09-23T05:51:43.811Z,15.9
2022-09-23T05:53:47.520Z,18.7
2022-09-23T05:55:51.141Z,14
2022-09-23T05:57:57.794Z,17.7
2022-09-23T06:00:01.458Z,18.1
2022-09-23T06:02:05.144Z,11.6
2022-09-23T06:04:08.842Z,16.3
2022-09-23T06:06:12.407Z,19.4
2022-09-23T06:08:16.022Z,15.1
2022-09-23T06:10:19.634Z,18.5
2022-09-23T06:12:26.358Z,15.1
2022-09-23T06:18:37.248Z,16.2
2022-09-23T06:20:40.885Z,14.6
2022-09-23T06:22:44.525Z,17.2
2022-09-23T06:24:48.164Z,23.4
2022-09-23T06:26:54.859Z,13.5
2022-09-23T06:28:58.460Z,15.1
2022-09-23T06:31:02.185Z,14.3
2022-09-23T06:33:34.889Z,18.6
2022-09-23T06:35:30.069Z,13.4
2022-09-23T06:37:33.690Z,14.3
2022-09-23T06:41:44.039Z,19.1
2022-09-23T06:47:54.936Z,16.9
2022-09-23T06:49:58.519Z,13.1
2022-09-23T06:52:03.731Z,18
2022-09-23T06:54:10.505Z,13.7
2022-09-23T06:56:14.033Z,16.2
2022-09-23T06:58:17.684Z,11.6
2022-09-23T07:00:21.367Z,12.8
2022-09-23T07:02:25.007Z,16.3
2022-09-23T07:04:29.450Z,12.8
2022-09-23T07:06:32.162Z,18.1
2022-09-23T07:08:38.865Z,14.8
2022-09-23T07:10:42.432Z,13.2
2022-09-23T07:12:46.115Z,14.9
2022-09-23T07:14:49.689Z,14.9
2022-09-23T07:16:53.327Z,9.8
2022-09-23T07:18:56.941Z,11.7
2022-09-23T07:21:00.564Z,16.3
2022-09-23T07:23:07.249Z,11.9
2022-09-23T07:27:14.463Z,12.8
2022-09-23T07:28:17.818Z,17.7
2022-09-23T07:30:24.967Z,17.4
2022-09-23T07:32:25.119Z,9.6
2022-09-23T07:34:28.629Z,15.3
2022-09-23T07:36:35.327Z,12.6
2022-09-23T07:38:44.273Z,16.2
2022-09-23T07:40:42.625Z,11.6
2022-09-23T07:42:46.120Z,9.3
2022-09-23T07:44:49.717Z,13.3
2022-09-23T07:48:56.999Z,9.2
2022-09-23T07:51:08.816Z,11
2022-09-23T07:53:07.225Z,10.1
2022-09-23T07:55:11.720Z,9.7
2022-09-23T07:57:15.297Z,9
2022-09-23T07:59:18.909Z,9.7
2022-09-23T08:01:22.618Z,8.7
2022-09-23T08:03:26.094Z,9
2022-09-23T08:05:32.737Z,9.7
2022-09-23T08:07:36.359Z,8.2
2022-09-23T08:09:39.942Z,15.5
2022-09-23T08:11:43.498Z,7.6
2022-09-23T08:13:47.069Z,7.4
2022-09-23T08:15:55.232Z,10.3
2022-09-23T08:17:54.219Z,11.6
2022-09-23T08:20:00.884Z,9.3
2022-09-23T08:22:04.414Z,9.7
2022-09-23T08:24:07.981Z,9.9
2022-09-23T08:25:11.318Z,8
2022-09-23T08:27:14.856Z,13.9
2022-09-23T08:29:18.433Z,7.7
2022-09-23T08:31:22.006Z,8.9
2022-09-23T08:33:28.616Z,14.8
2022-09-23T08:35:32.162Z,11.4
2022-09-23T08:37:35.706Z,11
2022-09-23T08:39:39.257Z,9.3
2022-09-23T08:41:42.806Z,9.5
2022-09-23T08:43:46.355Z,15.2
2022-09-23T08:45:49.911Z,9.8
2022-09-23T08:47:56.484Z,12.5
2022-09-23T08:50:00.042Z,10.1
2022-09-23T08:52:03.550Z,13.2
2022-09-23T08:54:07.164Z,7.7
2022-09-23T08:56:10.622Z,9
2022-09-23T09:00:17.785Z,9.1
2022-09-23T09:02:24.316Z,6.5
2022-09-23T09:04:27.793Z,12.3
2022-09-23T09:06:31.323Z,10.3
2022-09-23T09:08:34.831Z,10.3
2022-09-23T09:10:38.342Z,6.3
2022-09-23T09:12:41.882Z,13.3
2022-09-23T09:14:45.386Z,6.7
2022-09-23T09:16:59.358Z,6.5
2022-09-23T09:18:55.476Z,9.5
2022-09-23T09:20:59.009Z,7.7
2022-09-23T09:22:02.253Z,7.3
2022-09-23T09:24:05.862Z,8.8
2022-09-23T09:26:09.291Z,11.5
2022-09-23T09:28:12.792Z,15.1
2022-09-23T09:30:19.400Z,8.1
2022-09-23T09:32:22.868Z,6.7
2022-09-23T09:34:26.362Z,8.8
2022-09-23T09:36:30.853Z,8
2022-09-23T09:38:33.323Z,7.7
2022-09-23T09:40:36.897Z,7.5
2022-09-23T09:42:40.311Z,8.2
2022-09-23T09:44:46.884Z,8
2022-09-23T09:46:50.423Z,13.8
2022-09-23T09:48:53.837Z,6.3
2022-09-23T09:50:57.357Z,9.9
2022-09-23T09:53:00.743Z,17.5
2022-09-23T09:57:07.663Z,7.1
2022-09-23T09:59:14.248Z,5.9
2022-09-23T10:05:24.603Z,7.5
2022-09-23T10:07:28.077Z,6.4
2022-09-23T10:11:34.979Z,6.9
2022-09-23T10:13:41.534Z,8.8
2022-09-23T10:15:45.537Z,4.7
2022-09-23T10:17:48.430Z,9.7
2022-09-23T10:20:12.232Z,5.7
2022-09-23T10:22:15.675Z,7.1
2022-09-23T10:24:19.140Z,7.1
2022-09-23T10:26:25.664Z,8
2022-09-23T10:28:29.028Z,6.3
2022-09-23T10:30:32.495Z,6.7
2022-09-23T10:32:35.917Z,7.4
2022-09-23T10:34:39.357Z,5
2022-09-23T10:36:44.599Z,6.6
2022-09-23T10:38:46.237Z,7
2022-09-23T10:40:52.875Z,5.1
2022-09-23T10:42:56.180Z,10.4
2022-09-23T10:44:59.602Z,7.3
2022-09-23T10:49:06.443Z,5.3
2022-09-23T10:51:09.834Z,10.2
2022-09-23T10:53:13.291Z,5.7
2022-09-23T10:55:20.717Z,5.1
2022-09-23T10:57:23.239Z,4.7
2022-09-23T11:03:33.415Z,4.3
2022-09-23T11:09:46.670Z,6.1
2022-09-23T11:11:50.045Z,4
2022-09-23T11:14:56.736Z,4.2
2022-09-23T11:17:00.221Z,4.8
2022-09-23T11:19:03.543Z,7.4
2022-09-23T11:23:13.440Z,6.4
2022-09-23T11:29:23.550Z,6.7
2022-09-23T11:35:33.771Z,4.9
2022-09-23T11:39:43.690Z,6
2022-09-23T11:43:50.447Z,6
2022-09-23T11:45:53.916Z,6.6
2022-09-23T11:47:57.274Z,6.6
2022-09-23T11:52:07.182Z,10.1
2022-09-23T11:56:15.604Z,6.7
2022-09-23T11:58:24.536Z,4.8
2022-09-23T12:11:44.233Z,7.4
2022-09-23T12:13:47.663Z,3.9
2022-09-23T12:15:51.095Z,4.1
2022-09-23T12:17:54.474Z,8
2022-09-23T12:20:01.035Z,5.2
2022-09-23T12:22:04.471Z,3.2
2022-09-23T12:24:07.979Z,12
2022-09-23T12:28:14.646Z,2
2022-09-23T12:30:18.062Z,3.1
2022-09-23T12:32:21.472Z,8.5
2022-09-23T12:34:27.990Z,13.7
2022-09-23T12:36:31.393Z,5.5
2022-09-23T12:38:34.758Z,3
2022-09-23T12:40:38.160Z,2.4
2022-09-23T12:44:44.903Z,3.4
2022-09-23T12:46:48.314Z,4
2022-09-23T12:48:56.224Z,6.5
2022-09-23T12:53:03.022Z,2.5
2022-09-23T12:55:06.396Z,2.8
2022-09-23T12:57:09.785Z,4.1
2022-09-23T12:59:13.055Z,2.1
2022-09-23T13:01:16.564Z,2
2022-09-23T13:03:22.855Z,4.1
2022-09-23T13:05:26.233Z,9.2
2022-09-23T13:08:32.850Z,1.7
2022-09-23T13:14:42.887Z,1.8
2022-09-23T13:16:49.234Z,2.1
2022-09-23T13:18:52.461Z,1.8
2022-09-23T13:20:55.829Z,3.8
2022-09-23T13:22:59.177Z,2
2022-09-23T13:25:02.582Z,2.2
2022-09-23T13:27:05.971Z,3
2022-09-23T13:29:09.332Z,3.5
2022-09-23T13:31:15.733Z,2.2
2022-09-23T13:33:19.109Z,3.1
2022-09-23T13:35:22.418Z,3.4
2022-09-23T13:37:25.747Z,1.7
2022-09-23T13:39:29.149Z,2.6
2022-09-23T13:41:32.398Z,4
2022-09-23T13:43:40.830Z,3.2
2022-09-23T13:45:42.190Z,3.4
2022-09-23T13:47:45.476Z,2.1
2022-09-23T13:49:48.831Z,2.1
2022-09-23T13:51:52.184Z,3.8
2022-09-23T13:53:55.485Z,2.4
2022-09-23T13:55:58.852Z,2.6
2022-09-23T13:58:02.220Z,4.3
2022-09-23T14:00:08.730Z,1.9
2022-09-23T14:02:12.256Z,4.4
2022-09-23T14:04:15.481Z,5.8
2022-09-23T14:06:33.524Z,2.7
2022-09-23T14:14:50.110Z,2.4
2022-09-23T14:16:53.489Z,6.4
2022-09-23T14:18:56.803Z,5.1
2022-09-23T14:21:00.084Z,6.8
2022-09-23T14:23:03.431Z,3.5
2022-09-23T14:25:06.755Z,3.3
2022-09-23T14:27:13.161Z,2.9
2022-09-23T14:33:23.318Z,5.7
2022-09-23T14:39:33.471Z,4.2
2022-09-23T14:41:40.001Z,5.7
2022-09-23T14:43:43.344Z,10.6
2022-09-23T14:45:46.775Z,5.5
2022-09-23T14:49:53.551Z,6.4
2022-09-23T14:51:56.850Z,6.7
2022-09-23T14:54:00.208Z,7.8
2022-09-23T14:56:06.696Z,7
2022-09-23T15:00:13.423Z,11.8
2022-09-23T15:01:16.872Z,7.7
2022-09-23T15:03:19.972Z,9.6
2022-09-23T15:05:23.330Z,8.7
2022-09-23T15:07:26.723Z,9.9
2022-09-23T15:09:33.231Z,15.8
2022-09-23T15:11:36.603Z,10.6
2022-09-23T15:13:39.996Z,11
2022-09-23T15:15:43.319Z,7.1
2022-09-23T15:17:46.770Z,7.3
2022-09-23T15:19:50.127Z,11.1
2022-09-23T15:21:53.524Z,12.8
2022-09-23T15:24:00.015Z,10.5
2022-09-23T15:26:03.498Z,8.7
2022-09-23T15:28:06.791Z,8.7
2022-09-23T15:30:14.579Z,9
2022-09-23T15:32:13.629Z,7.5
2022-09-23T15:34:17.048Z,6.8
2022-09-23T15:36:20.444Z,10.1
2022-09-23T15:44:37.210Z,6.6
2022-09-23T15:48:43.913Z,9.1
2022-09-23T15:52:53.898Z,13.3
2022-09-23T15:54:57.312Z,6.2
2022-09-23T15:57:00.744Z,5.4
2022-09-23T15:58:03.970Z,7
2022-09-23T16:00:07.390Z,6.1
2022-09-23T16:02:10.852Z,8.7
2022-09-23T16:04:14.239Z,12.7
2022-09-23T16:06:20.743Z,7.6
2022-09-23T16:08:24.190Z,6.2
2022-09-23T16:10:27.611Z,7.4
2022-09-23T16:12:31.046Z,6.6
2022-09-23T16:14:34.478Z,9.1
2022-09-23T16:18:41.336Z,5.7
2022-09-23T16:20:47.875Z,7
2022-09-23T16:24:54.759Z,6.8
2022-09-23T16:26:58.158Z,9.2
2022-09-23T16:31:05.086Z,5.4
2022-09-23T16:33:08.493Z,10.2
2022-09-23T16:35:14.987Z,4.5
2022-09-23T16:37:18.401Z,3.9
2022-09-23T16:39:21.829Z,5
2022-09-23T16:41:25.302Z,18.5
2022-09-23T16:43:28.755Z,8.6
2022-09-23T16:45:32.276Z,7.7
2022-09-23T16:47:35.600Z,10.1
2022-09-23T16:49:42.155Z,11
2022-09-23T16:51:45.631Z,4.6
2022-09-23T16:53:49.045Z,14.3
2022-09-23T16:54:52.290Z,9.5
2022-09-23T16:56:55.784Z,6.2
2022-09-23T17:01:02.805Z,4.3
2022-09-23T17:03:09.247Z,8.4
2022-09-23T17:05:12.664Z,6.3
2022-09-23T17:07:16.112Z,9
2022-09-23T17:09:19.576Z,5
2022-09-23T17:11:22.970Z,6.7
2022-09-23T17:13:26.467Z,6.1
2022-09-23T17:15:29.907Z,8.1
2022-09-23T17:19:39.950Z,6.6
2022-09-23T17:21:43.409Z,10.2
2022-09-23T17:23:46.857Z,6.9
2022-09-23T17:25:50.494Z,6.4
2022-09-23T17:27:53.775Z,7.8
2022-09-23T17:29:57.202Z,14.6
2022-09-23T17:40:17.699Z,5.6
2022-09-23T17:44:24.609Z,5.2
2022-09-23T17:46:31.160Z,6.2
2022-09-23T17:48:34.600Z,12.1
2022-09-23T17:50:38.095Z,10.1
2022-09-23T17:53:07.929Z,15.8
2022-09-23T17:57:14.835Z,5.3
2022-09-23T17:59:21.329Z,8.8
2022-09-23T18:01:24.891Z,11.4
2022-09-23T18:03:28.322Z,54.2
2022-09-23T18:05:31.771Z,22.4
2022-09-23T18:07:35.208Z,15.5
2022-09-23T18:09:38.654Z,16.1
2022-09-23T18:11:42.137Z,18.8
2022-09-23T18:13:48.701Z,11.7
2022-09-23T18:15:52.205Z,8.9
2022-09-23T18:17:55.628Z,8.2
2022-09-23T18:19:59.087Z,21.1
2022-09-23T18:22:02.574Z,17.5
2022-09-23T18:24:30.761Z,12.7
2022-09-23T18:32:22.952Z,16
2022-09-23T18:38:33.349Z,16.7
2022-09-23T18:40:36.853Z,20.1
2022-09-23T18:42:44.917Z,13.2
2022-09-23T18:44:48.364Z,19.9
2022-09-23T18:46:51.778Z,22.1
2022-09-23T18:47:55.046Z,10.9
2022-09-23T18:58:15.489Z,18.8
2022-09-23T19:00:18.960Z,19.3
2022-09-23T19:04:25.888Z,10
2022-09-23T19:06:29.372Z,12.6
2022-09-23T19:14:46.326Z,12.7
2022-09-23T19:18:53.289Z,12.7
2022-09-23T19:27:10.304Z,19.9
2022-09-23T19:29:13.786Z,17.8
2022-09-23T19:31:17.331Z,15.9
2022-09-23T19:33:20.757Z,13.7
2022-09-23T19:35:24.263Z,15.3
2022-09-23T19:37:27.741Z,14.8
2022-09-23T19:39:34.352Z,17.5
2022-09-23T19:41:37.807Z,16.3
2022-09-23T19:43:41.298Z,18.3
2022-09-23T19:44:44.585Z,16.8
2022-09-23T19:46:51.704Z,19.8
2022-09-23T19:48:51.589Z,15.7
2022-09-23T19:50:55.068Z,17.2
2022-09-23T19:53:01.623Z,16.7
2022-09-23T19:55:05.128Z,16.6
2022-09-23T19:57:08.606Z,14.4
2022-09-23T19:59:15.245Z,18.9
2022-09-23T20:01:15.715Z,21.1
2022-09-23T20:03:19.133Z,16.6
2022-09-23T20:05:22.639Z,13.4
2022-09-23T20:07:29.201Z,20.5
2022-09-23T20:09:32.705Z,20.5
2022-09-23T20:11:36.219Z,19.4
2022-09-23T20:13:39.725Z,21.9
2022-09-23T20:17:46.759Z,24.5
2022-09-23T20:19:50.230Z,22.7
2022-09-23T20:21:56.833Z,21.2
2022-09-23T20:24:00.536Z,23
2022-09-23T20:26:03.863Z,25.4
2022-09-23T20:32:14.432Z,24
2022-09-23T20:34:17.915Z,27.4
2022-09-23T20:36:24.506Z,35.3
2022-09-23T20:38:28.012Z,31.6
2022-09-23T20:40:31.607Z,22.8
2022-09-23T20:41:34.842Z,30.6
2022-09-23T20:43:38.342Z,25.6
2022-09-23T20:45:41.847Z,30.8
2022-09-23T20:47:45.405Z,27.5
2022-09-23T20:49:51.941Z,26
2022-09-23T20:51:55.470Z,23.2
2022-09-23T20:53:58.973Z,32.7
2022-09-23T20:56:02.672Z,28.6
2022-09-23T21:02:13.078Z,24.7
2022-09-23T21:04:19.644Z,32.1
2022-09-23T21:06:23.140Z,27.8
2022-09-23T21:08:26.704Z,29.7
2022-09-23T21:10:30.184Z,22.6
2022-09-23T21:12:33.692Z,20
2022-09-23T21:18:47.311Z,24.3
2022-09-23T21:22:54.333Z,21.4
2022-09-23T21:29:04.880Z,18.5
2022-09-23T21:31:08.435Z,17.7
2022-09-23T21:33:14.995Z,18.5
2022-09-23T21:35:18.489Z,15.2
2022-09-23T21:37:22.018Z,17.4
2022-09-23T21:39:45.787Z,24.8
2022-09-23T21:41:49.319Z,17.2
2022-09-23T21:43:52.819Z,22.6
2022-09-23T21:50:06.384Z,18.9
2022-09-23T21:52:09.901Z,18
2022-09-23T21:54:13.363Z,15.7
2022-09-23T21:56:20.293Z,17.1
2022-09-23T21:58:20.358Z,17.7
2022-09-23T22:00:26.969Z,20.5
2022-09-23T22:02:30.419Z,17.9
2022-09-23T22:04:34.021Z,17.1
2022-09-23T22:06:37.433Z,19.9
2022-09-23T22:08:40.912Z,21.4
2022-09-23T22:10:44.430Z,19.9
2022-09-23T22:12:47.886Z,19.4
2022-09-23T22:14:54.507Z,18.7
2022-09-23T22:16:57.989Z,18.6
2022-09-23T22:21:04.999Z,17
2022-09-23T22:27:15.467Z,21.6
2022-09-23T22:31:25.651Z,19.8
2022-09-23T22:34:49.123Z,18.9
2022-09-23T22:36:35.888Z,17.6
2022-09-23T22:38:39.408Z,19.6
2022-09-23T22:40:42.928Z,18
2022-09-23T22:42:49.453Z,23.2
2022-09-23T22:44:52.975Z,17.5
2022-09-23T22:46:56.546Z,18.9
2022-09-23T22:48:59.975Z,20.8
2022-09-23T22:51:03.465Z,20.5
2022-09-23T22:53:06.971Z,18.6
2022-09-23T22:57:17.082Z,20.4
2022-09-23T23:01:24.103Z,20.1
2022-09-23T23:07:34.588Z,18.5
2022-09-23T23:11:44.729Z,24.3
2022-09-23T23:13:48.200Z,23.1
2022-09-23T23:15:51.731Z,21.6
2022-09-23T23:17:55.230Z,21.5
2022-09-23T23:19:58.746Z,20.7
2022-09-23T23:24:05.822Z,21.9
2022-09-23T23:28:15.896Z,24.7
2022-09-23T23:30:19.386Z,29.1
2022-09-23T23:31:22.739Z,27.2
2022-09-23T23:33:26.164Z,29
2022-09-23T23:35:29.703Z,25.8
2022-09-23T23:37:33.197Z,25.8
2022-09-23T23:39:39.808Z,27.4
2022-09-23T23:41:43.316Z,33.3
2022-09-23T23:43:46.819Z,31.2
2022-09-23T23:45:50.334Z,26.4
2022-09-23T23:47:53.831Z,24
2022-09-23T23:49:57.333Z,28.1
2022-09-23T23:52:00.830Z,26.6
2022-09-23T23:54:07.458Z,33.5
2022-09-23T23:56:11.033Z,28.5
2022-09-23T23:58:14.524Z,28.4
